sensor_id;sensor_type;location;lat;lon;timestamp;pressure;altitude;pressure_sealevel;temperature
11926;BMP180;6022;48.768;18.608;2023-04-03T00:01:17;98441.59;;;4.78
11926;BMP180;6022;48.768;18.608;2023-04-03T00:03:44;98434.81;;;4.80
11926;BMP180;6022;48.768;18.608;2023-04-03T00:06:12;98438.31;;;4.76
11926;BMP180;6022;48.768;18.608;2023-04-03T00:08:40;98439.38;;;4.71
11926;BMP180;6022;48.768;18.608;2023-04-03T00:11:08;98439.31;;;4.72
11926;BMP180;6022;48.768;18.608;2023-04-03T00:13:37;98435.00;;;4.76
11926;BMP180;6022;48.768;18.608;2023-04-03T00:16:06;98437.44;;;4.77
11926;BMP180;6022;48.768;18.608;2023-04-03T00:18:34;98435.56;;;4.82
11926;BMP180;6022;48.768;18.608;2023-04-03T00:21:03;98438.06;;;4.82
11926;BMP180;6022;48.768;18.608;2023-04-03T00:23:30;98435.50;;;4.84
11926;BMP180;6022;48.768;18.608;2023-04-03T00:25:58;98442.16;;;4.85
11926;BMP180;6022;48.768;18.608;2023-04-03T00:28:26;98445.59;;;4.82
11926;BMP180;6022;48.768;18.608;2023-04-03T00:30:53;98447.66;;;4.73
11926;BMP180;6022;48.768;18.608;2023-04-03T00:33:20;98453.66;;;4.70
11926;BMP180;6022;48.768;18.608;2023-04-03T00:35:51;98450.25;;;4.71
11926;BMP180;6022;48.768;18.608;2023-04-03T00:38:19;98445.47;;;4.65
11926;BMP180;6022;48.768;18.608;2023-04-03T00:40:48;98449.09;;;4.58
11926;BMP180;6022;48.768;18.608;2023-04-03T00:43:21;98449.53;;;4.48
11926;BMP180;6022;48.768;18.608;2023-04-03T00:45:52;98442.78;;;4.49
11926;BMP180;6022;48.768;18.608;2023-04-03T00:48:31;98436.91;;;4.50
11926;BMP180;6022;48.768;18.608;2023-04-03T00:51:00;98434.66;;;4.44
11926;BMP180;6022;48.768;18.608;2023-04-03T00:53:39;98439.53;;;4.47
11926;BMP180;6022;48.768;18.608;2023-04-03T00:56:12;98439.53;;;4.47
11926;BMP180;6022;48.768;18.608;2023-04-03T00:58:50;98439.66;;;4.44
11926;BMP180;6022;48.768;18.608;2023-04-03T01:01:24;98446.31;;;4.45
11926;BMP180;6022;48.768;18.608;2023-04-03T01:03:52;98435.50;;;4.43
11926;BMP180;6022;48.768;18.608;2023-04-03T01:06:25;98437.91;;;4.46
11926;BMP180;6022;48.768;18.608;2023-04-03T01:08:54;98434.00;;;4.39
11926;BMP180;6022;48.768;18.608;2023-04-03T01:11:22;98429.84;;;4.38
11926;BMP180;6022;48.768;18.608;2023-04-03T01:13:49;98434.81;;;4.39
11926;BMP180;6022;48.768;18.608;2023-04-03T01:16:17;98446.53;;;4.39
11926;BMP180;6022;48.768;18.608;2023-04-03T01:18:46;98439.88;;;4.38
11926;BMP180;6022;48.768;18.608;2023-04-03T01:24:41;98439.97;;;4.36
11926;BMP180;6022;48.768;18.608;2023-04-03T01:27:11;98441.63;;;4.36
11926;BMP180;6022;48.768;18.608;2023-04-03T01:29:41;98440.00;;;4.35
11926;BMP180;6022;48.768;18.608;2023-04-03T01:32:10;98448.13;;;4.20
11926;BMP180;6022;48.768;18.608;2023-04-03T01:34:37;98437.19;;;4.21
11926;BMP180;6022;48.768;18.608;2023-04-03T01:37:04;98442.34;;;4.18
11926;BMP180;6022;48.768;18.608;2023-04-03T01:39:32;98446.56;;;4.17
11926;BMP180;6022;48.768;18.608;2023-04-03T01:41:59;98444.97;;;4.15
11926;BMP180;6022;48.768;18.608;2023-04-03T01:44:26;98444.44;;;4.07
11926;BMP180;6022;48.768;18.608;2023-04-03T01:46:53;98437.91;;;4.03
11926;BMP180;6022;48.768;18.608;2023-04-03T01:49:20;98443.91;;;3.99
11926;BMP180;6022;48.768;18.608;2023-04-03T01:51:48;98450.44;;;4.03
11926;BMP180;6022;48.768;18.608;2023-04-03T01:54:15;98441.16;;;4.05
11926;BMP180;6022;48.768;18.608;2023-04-03T01:56:42;98439.59;;;4.03
11926;BMP180;6022;48.768;18.608;2023-04-03T01:59:12;98437.81;;;4.06
11926;BMP180;6022;48.768;18.608;2023-04-03T02:01:39;98435.19;;;4.08
11926;BMP180;6022;48.768;18.608;2023-04-03T02:04:06;98443.56;;;4.08
11926;BMP180;6022;48.768;18.608;2023-04-03T02:06:34;98436.97;;;4.06
11926;BMP180;6022;48.768;18.608;2023-04-03T02:09:02;98440.34;;;4.05
11926;BMP180;6022;48.768;18.608;2023-04-03T02:11:29;98431.13;;;4.05
11926;BMP180;6022;48.768;18.608;2023-04-03T02:13:57;98430.31;;;4.05
11926;BMP180;6022;48.768;18.608;2023-04-03T02:16:24;98441.94;;;4.07
11926;BMP180;6022;48.768;18.608;2023-04-03T02:18:51;98442.91;;;4.03
11926;BMP180;6022;48.768;18.608;2023-04-03T02:21:18;98438.91;;;3.99
11926;BMP180;6022;48.768;18.608;2023-04-03T02:23:45;98442.44;;;3.94
11926;BMP180;6022;48.768;18.608;2023-04-03T02:26:14;98441.72;;;3.90
11926;BMP180;6022;48.768;18.608;2023-04-03T02:28:42;98445.13;;;3.89
11926;BMP180;6022;48.768;18.608;2023-04-03T02:31:10;98451.66;;;3.93
11926;BMP180;6022;48.768;18.608;2023-04-03T02:33:38;98440.63;;;3.97
11926;BMP180;6022;48.768;18.608;2023-04-03T02:36:07;98445.66;;;3.97
11926;BMP180;6022;48.768;18.608;2023-04-03T02:38:35;98438.13;;;3.97
11926;BMP180;6022;48.768;18.608;2023-04-03T02:41:09;98442.91;;;4.03
11926;BMP180;6022;48.768;18.608;2023-04-03T02:43:37;98437.81;;;4.06
11926;BMP180;6022;48.768;18.608;2023-04-03T02:46:06;98442.69;;;4.09
11926;BMP180;6022;48.768;18.608;2023-04-03T02:48:34;98442.81;;;4.06
11926;BMP180;6022;48.768;18.608;2023-04-03T02:51:02;98441.16;;;4.05
11926;BMP180;6022;48.768;18.608;2023-04-03T02:53:29;98441.81;;;4.10
11926;BMP180;6022;48.768;18.608;2023-04-03T02:55:56;98447.59;;;4.12
11926;BMP180;6022;48.768;18.608;2023-04-03T02:58:24;98439.19;;;4.13
11926;BMP180;6022;48.768;18.608;2023-04-03T03:00:51;98453.38;;;4.14
11926;BMP180;6022;48.768;18.608;2023-04-03T03:03:18;98455.06;;;4.13
11926;BMP180;6022;48.768;18.608;2023-04-03T03:05:45;98455.72;;;4.18
11926;BMP180;6022;48.768;18.608;2023-04-03T03:08:12;98455.13;;;4.12
11926;BMP180;6022;48.768;18.608;2023-04-03T03:10:39;98451.03;;;4.10
11926;BMP180;6022;48.768;18.608;2023-04-03T03:13:06;98457.66;;;4.12
11926;BMP180;6022;48.768;18.608;2023-04-03T03:15:34;98443.38;;;4.13
11926;BMP180;6022;48.768;18.608;2023-04-03T03:18:03;98447.53;;;4.13
11926;BMP180;6022;48.768;18.608;2023-04-03T03:20:30;98449.06;;;4.17
11926;BMP180;6022;48.768;18.608;2023-04-03T03:22:57;98454.84;;;4.19
11926;BMP180;6022;48.768;18.608;2023-04-03T03:25:24;98451.41;;;4.22
11926;BMP180;6022;48.768;18.608;2023-04-03T03:27:52;98456.47;;;4.20
11926;BMP180;6022;48.768;18.608;2023-04-03T03:30:19;98452.16;;;4.24
11926;BMP180;6022;48.768;18.608;2023-04-03T03:32:46;98459.88;;;4.19
11926;BMP180;6022;48.768;18.608;2023-04-03T03:35:15;98457.16;;;4.24
11926;BMP180;6022;48.768;18.608;2023-04-03T03:37:43;98456.94;;;4.30
11926;BMP180;6022;48.768;18.608;2023-04-03T03:40:11;98453.56;;;4.31
11926;BMP180;6022;48.768;18.608;2023-04-03T03:42:40;98460.44;;;4.26
11926;BMP180;6022;48.768;18.608;2023-04-03T03:45:08;98466.13;;;4.31
11926;BMP180;6022;48.768;18.608;2023-04-03T03:47:35;98464.69;;;4.24
11926;BMP180;6022;48.768;18.608;2023-04-03T03:50:03;98473.03;;;4.24
11926;BMP180;6022;48.768;18.608;2023-04-03T03:52:30;98469.53;;;4.28
11926;BMP180;6022;48.768;18.608;2023-04-03T03:54:57;98463.28;;;4.17
11926;BMP180;6022;48.768;18.608;2023-04-03T03:57:25;98476.59;;;4.19
11926;BMP180;6022;48.768;18.608;2023-04-03T03:59:54;98468.03;;;4.24
11926;BMP180;6022;48.768;18.608;2023-04-03T04:02:21;98475.75;;;4.20
11926;BMP180;6022;48.768;18.608;2023-04-03T04:04:49;98474.31;;;4.13
11926;BMP180;6022;48.768;18.608;2023-04-03T04:07:16;98478.31;;;4.18
11926;BMP180;6022;48.768;18.608;2023-04-03T04:09:43;98483.22;;;4.21
11926;BMP180;6022;48.768;18.608;2023-04-03T04:12:11;98478.91;;;4.25
11926;BMP180;6022;48.768;18.608;2023-04-03T04:14:38;98475.78;;;4.18
11926;BMP180;6022;48.768;18.608;2023-04-03T04:17:05;98470.94;;;4.14
11926;BMP180;6022;48.768;18.608;2023-04-03T04:19:32;98480.72;;;4.21
11926;BMP180;6022;48.768;18.608;2023-04-03T04:22:00;98483.97;;;4.23
11926;BMP180;6022;48.768;18.608;2023-04-03T04:24:27;98479.66;;;4.27
11926;BMP180;6022;48.768;18.608;2023-04-03T04:26:54;98484.56;;;4.30
11926;BMP180;6022;48.768;18.608;2023-04-03T04:29:22;98483.31;;;4.18
11926;BMP180;6022;48.768;18.608;2023-04-03T04:31:49;98483.94;;;4.25
11926;BMP180;6022;48.768;18.608;2023-04-03T04:34:16;98486.31;;;4.28
11926;BMP180;6022;48.768;18.608;2023-04-03T04:36:43;98483.78;;;4.28
11926;BMP180;6022;48.768;18.608;2023-04-03T04:39:10;98482.19;;;4.27
11926;BMP180;6022;48.768;18.608;2023-04-03T04:41:38;98484.97;;;4.19
11926;BMP180;6022;48.768;18.608;2023-04-03T04:44:05;98480.00;;;4.18
11926;BMP180;6022;48.768;18.608;2023-04-03T04:46:32;98481.63;;;4.19
11926;BMP180;6022;48.768;18.608;2023-04-03T04:48:59;98491.66;;;4.19
11926;BMP180;6022;48.768;18.608;2023-04-03T04:51:26;98498.19;;;4.23
11926;BMP180;6022;48.768;18.608;2023-04-03T04:53:58;98494.81;;;4.24
11926;BMP180;6022;48.768;18.608;2023-04-03T04:56:25;98498.28;;;4.21
11926;BMP180;6022;48.768;18.608;2023-04-03T04:58:53;98496.56;;;4.22
11926;BMP180;6022;48.768;18.608;2023-04-03T05:01:20;98492.28;;;4.25
11926;BMP180;6022;48.768;18.608;2023-04-03T05:03:47;98496.94;;;4.34
11926;BMP180;6022;48.768;18.608;2023-04-03T05:06:14;98491.16;;;4.53
11926;BMP180;6022;48.768;18.608;2023-04-03T05:08:41;98494.59;;;4.72
11926;BMP180;6022;48.768;18.608;2023-04-03T05:11:09;98501.41;;;4.90
11926;BMP180;6022;48.768;18.608;2023-04-03T05:13:36;98497.22;;;4.69
11926;BMP180;6022;48.768;18.608;2023-04-03T05:16:06;98501.13;;;4.76
11926;BMP180;6022;48.768;18.608;2023-04-03T05:18:33;98504.13;;;4.64
11926;BMP180;6022;48.768;18.608;2023-04-03T05:21:00;98507.97;;;4.73
11926;BMP180;6022;48.768;18.608;2023-04-03T05:23:27;98507.09;;;4.74
11926;BMP180;6022;48.768;18.608;2023-04-03T05:25:55;98507.78;;;4.77
11926;BMP180;6022;48.768;18.608;2023-04-03T05:28:22;98512.19;;;4.72
11926;BMP180;6022;48.768;18.608;2023-04-03T05:30:54;98521.00;;;4.61
11926;BMP180;6022;48.768;18.608;2023-04-03T05:33:23;98523.53;;;4.61
11926;BMP180;6022;48.768;18.608;2023-04-03T05:35:50;98522.81;;;4.57
11926;BMP180;6022;48.768;18.608;2023-04-03T05:38:18;98521.41;;;4.50
11926;BMP180;6022;48.768;18.608;2023-04-03T05:40:45;98522.91;;;4.54
11926;BMP180;6022;48.768;18.608;2023-04-03T05:43:13;98528.09;;;4.51
11926;BMP180;6022;48.768;18.608;2023-04-03T05:45:40;98520.69;;;4.47
11926;BMP180;6022;48.768;18.608;2023-04-03T05:48:18;98521.81;;;4.61
11926;BMP180;6022;48.768;18.608;2023-04-03T05:50:46;98512.13;;;4.74
11926;BMP180;6022;48.768;18.608;2023-04-03T05:53:21;98512.66;;;4.82
11926;BMP180;6022;48.768;18.608;2023-04-03T05:55:49;98526.56;;;4.69
11926;BMP180;6022;48.768;18.608;2023-04-03T05:58:16;98521.06;;;4.59
11926;BMP180;6022;48.768;18.608;2023-04-03T06:00:43;98521.06;;;4.59
11926;BMP180;6022;48.768;18.608;2023-04-03T06:03:10;98531.13;;;4.59
11926;BMP180;6022;48.768;18.608;2023-04-03T06:05:38;98537.88;;;4.57
11926;BMP180;6022;48.768;18.608;2023-04-03T06:08:06;98538.56;;;4.62
11926;BMP180;6022;48.768;18.608;2023-04-03T06:10:36;98540.69;;;4.71
11926;BMP180;6022;48.768;18.608;2023-04-03T06:13:04;98552.16;;;4.78
11926;BMP180;6022;48.768;18.608;2023-04-03T06:15:33;98547.38;;;4.72
11926;BMP180;6022;48.768;18.608;2023-04-03T06:18:00;98550.56;;;4.76
11926;BMP180;6022;48.768;18.608;2023-04-03T06:20:28;98555.31;;;4.83
11926;BMP180;6022;48.768;18.608;2023-04-03T06:22:55;98552.38;;;4.72
11926;BMP180;6022;48.768;18.608;2023-04-03T06:25:22;98550.50;;;4.77
11926;BMP180;6022;48.768;18.608;2023-04-03T06:27:49;98543.38;;;4.88
11926;BMP180;6022;48.768;18.608;2023-04-03T06:30:16;98545.72;;;4.92
11926;BMP180;6022;48.768;18.608;2023-04-03T06:32:44;98549.41;;;5.05
11926;BMP180;6022;48.768;18.608;2023-04-03T06:35:11;98549.44;;;5.24
11926;BMP180;6022;48.768;18.608;2023-04-03T06:37:38;98556.00;;;5.47
11926;BMP180;6022;48.768;18.608;2023-04-03T06:40:21;98550.75;;;5.33
11926;BMP180;6022;48.768;18.608;2023-04-03T06:42:48;98537.59;;;5.47
11926;BMP180;6022;48.768;18.608;2023-04-03T06:45:16;98542.31;;;5.54
11926;BMP180;6022;48.768;18.608;2023-04-03T06:47:43;98550.47;;;5.39
11926;BMP180;6022;48.768;18.608;2023-04-03T06:50:12;98560.91;;;5.30
11926;BMP180;6022;48.768;18.608;2023-04-03T06:52:41;98551.34;;;5.38
11926;BMP180;6022;48.768;18.608;2023-04-03T06:55:09;98545.13;;;5.27
11926;BMP180;6022;48.768;18.608;2023-04-03T06:57:37;98541.88;;;5.45
11926;BMP180;6022;48.768;18.608;2023-04-03T07:00:06;98543.34;;;6.44
11926;BMP180;6022;48.768;18.608;2023-04-03T07:02:35;98551.63;;;6.46
11926;BMP180;6022;48.768;18.608;2023-04-03T07:05:02;98551.97;;;6.57
11926;BMP180;6022;48.768;18.608;2023-04-03T07:07:30;98553.81;;;6.54
11926;BMP180;6022;48.768;18.608;2023-04-03T07:09:57;98550.59;;;7.37
11926;BMP180;6022;48.768;18.608;2023-04-03T07:12:24;98561.81;;;6.80
11926;BMP180;6022;48.768;18.608;2023-04-03T07:14:52;98561.66;;;6.48
11926;BMP180;6022;48.768;18.608;2023-04-03T07:17:19;98562.06;;;6.39
11926;BMP180;6022;48.768;18.608;2023-04-03T07:19:47;98569.28;;;6.46
11926;BMP180;6022;48.768;18.608;2023-04-03T07:22:14;98572.34;;;6.35
11926;BMP180;6022;48.768;18.608;2023-04-03T07:24:42;98577.00;;;6.05
11926;BMP180;6022;48.768;18.608;2023-04-03T07:27:09;98587.72;;;5.71
11926;BMP180;6022;48.768;18.608;2023-04-03T07:29:40;98594.53;;;5.89
11926;BMP180;6022;48.768;18.608;2023-04-03T07:32:07;98597.25;;;5.63
11926;BMP180;6022;48.768;18.608;2023-04-03T07:34:36;98603.88;;;5.46
11926;BMP180;6022;48.768;18.608;2023-04-03T07:37:04;98605.19;;;5.34
11926;BMP180;6022;48.768;18.608;2023-04-03T07:39:31;98616.03;;;5.15
11926;BMP180;6022;48.768;18.608;2023-04-03T07:41:59;98597.44;;;4.98
11926;BMP180;6022;48.768;18.608;2023-04-03T07:44:26;98603.84;;;5.05
11926;BMP180;6022;48.768;18.608;2023-04-03T07:46:54;98613.06;;;5.06
11926;BMP180;6022;48.768;18.608;2023-04-03T07:49:24;98613.28;;;5.00
11926;BMP180;6022;48.768;18.608;2023-04-03T07:51:51;98617.03;;;5.11
11926;BMP180;6022;48.768;18.608;2023-04-03T07:54:20;98615.97;;;5.17
11926;BMP180;6022;48.768;18.608;2023-04-03T07:56:48;98622.50;;;5.21
11926;BMP180;6022;48.768;18.608;2023-04-03T07:59:16;98628.00;;;5.09
11926;BMP180;6022;48.768;18.608;2023-04-03T08:01:43;98617.94;;;5.09
11926;BMP180;6022;48.768;18.608;2023-04-03T08:04:15;98624.72;;;5.28
11926;BMP180;6022;48.768;18.608;2023-04-03T08:06:55;98616.34;;;5.27
11926;BMP180;6022;48.768;18.608;2023-04-03T08:09:24;98621.50;;;5.25
11926;BMP180;6022;48.768;18.608;2023-04-03T08:11:54;98622.13;;;5.29
11926;BMP180;6022;48.768;18.608;2023-04-03T08:14:21;98631.13;;;5.15
11926;BMP180;6022;48.768;18.608;2023-04-03T08:16:49;98621.91;;;5.14
11926;BMP180;6022;48.768;18.608;2023-04-03T08:19:17;98626.25;;;5.11
11926;BMP180;6022;48.768;18.608;2023-04-03T08:21:54;98626.84;;;5.17
11926;BMP180;6022;48.768;18.608;2023-04-03T08:24:21;98632.56;;;5.21
11926;BMP180;6022;48.768;18.608;2023-04-03T08:26:49;98638.59;;;5.17
11926;BMP180;6022;48.768;18.608;2023-04-03T08:29:16;98626.47;;;5.05
11926;BMP180;6022;48.768;18.608;2023-04-03T08:31:46;98634.88;;;5.05
11926;BMP180;6022;48.768;18.608;2023-04-03T08:34:14;98627.19;;;5.08
11926;BMP180;6022;48.768;18.608;2023-04-03T08:36:43;98622.97;;;5.09
11926;BMP180;6022;48.768;18.608;2023-04-03T08:39:11;98626.59;;;5.23
11926;BMP180;6022;48.768;18.608;2023-04-03T08:41:46;98633.28;;;5.24
11926;BMP180;6022;48.768;18.608;2023-04-03T08:44:26;98630.22;;;5.16
11926;BMP180;6022;48.768;18.608;2023-04-03T08:50:14;98637.00;;;5.14
11926;BMP180;6022;48.768;18.608;2023-04-03T08:52:50;98638.06;;;5.09
11926;BMP180;6022;48.768;18.608;2023-04-03T08:55:32;98636.56;;;5.26
11926;BMP180;6022;48.768;18.608;2023-04-03T08:58:12;98626.56;;;5.44
11926;BMP180;6022;48.768;18.608;2023-04-03T09:01:05;98633.88;;;5.70
11926;BMP180;6022;48.768;18.608;2023-04-03T09:03:38;98640.19;;;6.19
11926;BMP180;6022;48.768;18.608;2023-04-03T09:06:18;98637.81;;;7.59
11926;BMP180;6022;48.768;18.608;2023-04-03T09:12:39;98636.00;;;7.28
11926;BMP180;6022;48.768;18.608;2023-04-03T09:15:19;98636.41;;;7.02
11926;BMP180;6022;48.768;18.608;2023-04-03T09:18:21;98616.34;;;7.17
11926;BMP180;6022;48.768;18.608;2023-04-03T09:21:13;98626.50;;;7.16
11926;BMP180;6022;48.768;18.608;2023-04-03T09:24:06;98635.66;;;7.00
11926;BMP180;6022;48.768;18.608;2023-04-03T09:26:45;98632.59;;;6.76
11926;BMP180;6022;48.768;18.608;2023-04-03T09:29:25;98625.91;;;6.38
11926;BMP180;6022;48.768;18.608;2023-04-03T09:32:02;98620.34;;;6.12
11926;BMP180;6022;48.768;18.608;2023-04-03T09:34:36;98632.41;;;6.05
11926;BMP180;6022;48.768;18.608;2023-04-03T09:37:05;98641.13;;;6.37
11926;BMP180;6022;48.768;18.608;2023-04-03T09:39:53;98633.75;;;6.50
11926;BMP180;6022;48.768;18.608;2023-04-03T09:42:24;98637.63;;;6.76
11926;BMP180;6022;48.768;18.608;2023-04-03T09:45:01;98643.97;;;7.71
11926;BMP180;6022;48.768;18.608;2023-04-03T09:47:35;98641.69;;;8.17
11926;BMP180;6022;48.768;18.608;2023-04-03T09:50:20;98643.09;;;7.89
11926;BMP180;6022;48.768;18.608;2023-04-03T09:52:51;98633.97;;;7.86
11926;BMP180;6022;48.768;18.608;2023-04-03T09:55:24;98646.84;;;7.30
11926;BMP180;6022;48.768;18.608;2023-04-03T09:58:24;98642.38;;;7.18
11926;BMP180;6022;48.768;18.608;2023-04-03T10:00:59;98651.03;;;7.64
11926;BMP180;6022;48.768;18.608;2023-04-03T10:03:31;98645.69;;;7.70
11926;BMP180;6022;48.768;18.608;2023-04-03T10:06:04;98647.09;;;7.59
11926;BMP180;6022;48.768;18.608;2023-04-03T10:08:39;98642.75;;;8.13
11926;BMP180;6022;48.768;18.608;2023-04-03T10:11:17;98646.88;;;7.63
11926;BMP180;6022;48.768;18.608;2023-04-03T10:13:59;98644.22;;;7.66
11926;BMP180;6022;48.768;18.608;2023-04-03T10:16:40;98654.31;;;7.14
11926;BMP180;6022;48.768;18.608;2023-04-03T10:25:28;98653.56;;;6.94
11926;BMP180;6022;48.768;18.608;2023-04-03T10:28:19;98664.00;;;7.05
11926;BMP180;6022;48.768;18.608;2023-04-03T10:31:15;98653.31;;;7.35
11926;BMP180;6022;48.768;18.608;2023-04-03T10:34:02;98657.28;;;6.87
11926;BMP180;6022;48.768;18.608;2023-04-03T10:39:39;98655.34;;;6.56
11926;BMP180;6022;48.768;18.608;2023-04-03T10:42:38;98663.41;;;7.00
11926;BMP180;6022;48.768;18.608;2023-04-03T10:48:24;98660.38;;;6.92
11926;BMP180;6022;48.768;18.608;2023-04-03T10:54:08;98656.72;;;6.99
11926;BMP180;6022;48.768;18.608;2023-04-03T10:56:47;98651.66;;;6.99
11926;BMP180;6022;48.768;18.608;2023-04-03T10:59:40;98652.50;;;6.81
11926;BMP180;6022;48.768;18.608;2023-04-03T11:05:46;98658.34;;;6.45
11926;BMP180;6022;48.768;18.608;2023-04-03T11:08:48;98656.47;;;6.69
11926;BMP180;6022;48.768;18.608;2023-04-03T11:11:25;98658.22;;;6.67
11926;BMP180;6022;48.768;18.608;2023-04-03T11:14:09;98648.44;;;6.61
11926;BMP180;6022;48.768;18.608;2023-04-03T11:16:46;98650.19;;;6.59
11926;BMP180;6022;48.768;18.608;2023-04-03T11:19:34;98654.47;;;6.75
11926;BMP180;6022;48.768;18.608;2023-04-03T11:22:16;98656.41;;;7.23
11926;BMP180;6022;48.768;18.608;2023-04-03T11:25:08;98641.28;;;7.05
11926;BMP180;6022;48.768;18.608;2023-04-03T11:27:58;98662.16;;;6.90
11926;BMP180;6022;48.768;18.608;2023-04-03T11:36:02;98662.97;;;7.09
11926;BMP180;6022;48.768;18.608;2023-04-03T11:38:55;98645.31;;;7.09
11926;BMP180;6022;48.768;18.608;2023-04-03T11:41:29;98647.72;;;6.76
11926;BMP180;6022;48.768;18.608;2023-04-03T11:46:59;98657.28;;;6.69
11926;BMP180;6022;48.768;18.608;2023-04-03T11:50:04;98656.44;;;7.05
11926;BMP180;6022;48.768;18.608;2023-04-03T12:29:34;98652.59;;;7.50
11926;BMP180;6022;48.768;18.608;2023-04-03T12:43:48;98637.94;;;8.56
11926;BMP180;6022;48.768;18.608;2023-04-03T12:46:21;98638.84;;;8.23
11926;BMP180;6022;48.768;18.608;2023-04-03T12:48:58;98619.69;;;8.02
11926;BMP180;6022;48.768;18.608;2023-04-03T12:51:41;98644.16;;;7.85
11926;BMP180;6022;48.768;18.608;2023-04-03T12:57:31;98634.03;;;8.18
11926;BMP180;6022;48.768;18.608;2023-04-03T12:59:56;98643.44;;;8.31
11926;BMP180;6022;48.768;18.608;2023-04-03T13:02:32;98620.94;;;7.93
11926;BMP180;6022;48.768;18.608;2023-04-03T13:05:10;98629.94;;;7.99
11926;BMP180;6022;48.768;18.608;2023-04-03T13:07:42;98633.34;;;8.31
11926;BMP180;6022;48.768;18.608;2023-04-03T13:10:14;98629.84;;;8.17
11926;BMP180;6022;48.768;18.608;2023-04-03T13:13:09;98628.00;;;7.87
11926;BMP180;6022;48.768;18.608;2023-04-03T13:15:44;98619.63;;;8.03
11926;BMP180;6022;48.768;18.608;2023-04-03T13:18:41;98628.25;;;8.16
11926;BMP180;6022;48.768;18.608;2023-04-03T13:21:20;98629.19;;;7.80
11926;BMP180;6022;48.768;18.608;2023-04-03T13:23:53;98614.94;;;7.96
11926;BMP180;6022;48.768;18.608;2023-04-03T13:26:43;98611.19;;;8.03
11926;BMP180;6022;48.768;18.608;2023-04-03T13:29:28;98631.34;;;7.88
11926;BMP180;6022;48.768;18.608;2023-04-03T13:32:00;98618.91;;;7.68
11926;BMP180;6022;48.768;18.608;2023-04-03T13:34:40;98615.47;;;7.69
11926;BMP180;6022;48.768;18.608;2023-04-03T13:37:31;98620.56;;;7.84
11926;BMP180;6022;48.768;18.608;2023-04-03T13:42:40;98624.63;;;7.54
11926;BMP180;6022;48.768;18.608;2023-04-03T13:45:31;98629.41;;;7.25
11926;BMP180;6022;48.768;18.608;2023-04-03T13:48:19;98625.31;;;7.23
11926;BMP180;6022;48.768;18.608;2023-04-03T13:51:04;98627.09;;;7.21
11926;BMP180;6022;48.768;18.608;2023-04-03T13:53:34;98623.03;;;7.35
11926;BMP180;6022;48.768;18.608;2023-04-03T13:56:21;98627.94;;;7.38
11926;BMP180;6022;48.768;18.608;2023-04-03T14:07:16;98609.44;;;7.21
11926;BMP180;6022;48.768;18.608;2023-04-03T14:09:43;98613.34;;;7.10
11926;BMP180;6022;48.768;18.608;2023-04-03T14:12:53;98613.44;;;7.08
11926;BMP180;6022;48.768;18.608;2023-04-03T14:15:28;98613.06;;;7.15
11926;BMP180;6022;48.768;18.608;2023-04-03T14:17:55;98615.19;;;7.06
11926;BMP180;6022;48.768;18.608;2023-04-03T14:20:27;98630.81;;;6.96
11926;BMP180;6022;48.768;18.608;2023-04-03T14:23:02;98627.81;;;6.88
11926;BMP180;6022;48.768;18.608;2023-04-03T14:25:40;98617.22;;;6.81
11926;BMP180;6022;48.768;18.608;2023-04-03T14:28:21;98620.75;;;6.78
11926;BMP180;6022;48.768;18.608;2023-04-03T14:30:50;98613.38;;;6.73
11926;BMP180;6022;48.768;18.608;2023-04-03T14:33:21;98609.31;;;6.71
11926;BMP180;6022;48.768;18.608;2023-04-03T14:35:49;98620.34;;;6.50
11926;BMP180;6022;48.768;18.608;2023-04-03T14:38:29;98603.72;;;6.64
11926;BMP180;6022;48.768;18.608;2023-04-03T14:40:58;98611.28;;;6.46
11926;BMP180;6022;48.768;18.608;2023-04-03T14:43:41;98619.38;;;6.34
11926;BMP180;6022;48.768;18.608;2023-04-03T14:46:31;98623.97;;;6.06
11926;BMP180;6022;48.768;18.608;2023-04-03T14:49:24;98630.94;;;6.20
11926;BMP180;6022;48.768;18.608;2023-04-03T14:51:52;98631.47;;;6.26
11926;BMP180;6022;48.768;18.608;2023-04-03T14:54:22;98628.69;;;6.32
11926;BMP180;6022;48.768;18.608;2023-04-03T14:56:54;98642.91;;;6.15
11926;BMP180;6022;48.768;18.608;2023-04-03T14:59:23;98638.16;;;6.27
11926;BMP180;6022;48.768;18.608;2023-04-03T15:01:51;98626.09;;;6.15
11926;BMP180;6022;48.768;18.608;2023-04-03T15:04:20;98638.38;;;6.03
11926;BMP180;6022;48.768;18.608;2023-04-03T15:06:49;98651.03;;;6.02
11926;BMP180;6022;48.768;18.608;2023-04-03T15:09:24;98647.81;;;6.18
11926;BMP180;6022;48.768;18.608;2023-04-03T15:11:54;98635.78;;;6.04
11926;BMP180;6022;48.768;18.608;2023-04-03T15:14:22;98642.25;;;5.92
11926;BMP180;6022;48.768;18.608;2023-04-03T15:17:17;98650.00;;;5.86
11926;BMP180;6022;48.768;18.608;2023-04-03T15:19:44;98649.78;;;5.92
11926;BMP180;6022;48.768;18.608;2023-04-03T15:22:18;98646.56;;;6.08
11926;BMP180;6022;48.768;18.608;2023-04-03T15:24:46;98661.63;;;5.90
11926;BMP180;6022;48.768;18.608;2023-04-03T15:27:13;98651.56;;;5.90
11926;BMP180;6022;48.768;18.608;2023-04-03T15:29:44;98659.53;;;5.79
11926;BMP180;6022;48.768;18.608;2023-04-03T15:32:12;98666.09;;;5.62
11926;BMP180;6022;48.768;18.608;2023-04-03T15:34:40;98671.78;;;5.46
11926;BMP180;6022;48.768;18.608;2023-04-03T15:37:07;98665.28;;;5.40
11926;BMP180;6022;48.768;18.608;2023-04-03T15:39:35;98662.47;;;5.48
11926;BMP180;6022;48.768;18.608;2023-04-03T15:42:02;98668.56;;;5.42
11926;BMP180;6022;48.768;18.608;2023-04-03T15:44:35;98674.91;;;5.52
11926;BMP180;6022;48.768;18.608;2023-04-03T15:47:02;98666.66;;;5.49
11926;BMP180;6022;48.768;18.608;2023-04-03T15:49:32;98679.53;;;5.41
11926;BMP180;6022;48.768;18.608;2023-04-03T15:52:00;98672.09;;;5.38
11926;BMP180;6022;48.768;18.608;2023-04-03T15:54:27;98669.53;;;5.19
11926;BMP180;6022;48.768;18.608;2023-04-03T15:56:56;98682.31;;;5.13
11926;BMP180;6022;48.768;18.608;2023-04-03T15:59:24;98674.28;;;5.03
11926;BMP180;6022;48.768;18.608;2023-04-03T16:01:52;98675.94;;;5.04
11926;BMP180;6022;48.768;18.608;2023-04-03T16:04:22;98689.63;;;4.97
11926;BMP180;6022;48.768;18.608;2023-04-03T16:06:53;98698.75;;;5.00
11926;BMP180;6022;48.768;18.608;2023-04-03T16:13:03;98686.00;;;4.83
11926;BMP180;6022;48.768;18.608;2023-04-03T16:15:34;98696.91;;;5.03
11926;BMP180;6022;48.768;18.608;2023-04-03T16:18:03;98700.38;;;5.01
11926;BMP180;6022;48.768;18.608;2023-04-03T16:20:31;98676.81;;;5.03
11926;BMP180;6022;48.768;18.608;2023-04-03T16:23:00;98701.13;;;4.82
11926;BMP180;6022;48.768;18.608;2023-04-03T16:25:28;98699.38;;;4.84
11926;BMP180;6022;48.768;18.608;2023-04-03T16:27:55;98707.34;;;4.72
11926;BMP180;6022;48.768;18.608;2023-04-03T16:30:23;98711.66;;;4.68
11926;BMP180;6022;48.768;18.608;2023-04-03T16:32:50;98708.38;;;4.66